Ana Sayfa
METAR-TAF:

METAR-TAF

Havaalanları :

Buenos Aires, Arjantin

Enlem: 34-34S, Boylam: 058-25W, yükseklik: 6 m

Güncel hava durumu gözlemi

Rapor saat 05:00 UTC de 34 dakika önce yapıldı.
Rüzgar güneybatıdan 3 kt, güney ve batı/kuzeybatı arasında değişken
Sıcaklık 17°C
Nem 55%
Basınç 1017 hPa
Görüş mesafesi 10 km veya daha fazla
1500 m altında bulut yok ve kümülonimbus yok

METAR: SABE 180500Z 23003KT 170V290 CAVOK 17/08 Q1017 NOSIG

Saat: 02:34 (05:34 UTC)

Tahmin

Rapor saat 23:00 UTC de 6 saat ve 34 dakika önce yapıldı.
Ayın 18'si saat 00 UTC'den ayın 18'si saat 24 UTC'ye kadar geçerli Tahmin
Rüzgar batıdan 5 kt
Görüş mesafesi 10 km veya daha fazla
1500 m altında bulut yok ve kümülonimbus yok
Dönüşüyor
ayın 18'si saat 17 UTC'den ayın 18'si saat 19 UTC'ye kadar
Rüzgar kuzeydan 5 kt

TAF: SABE 172300Z 1800/1824 27005KT CAVOK TX23/1818Z TN13/1809Z BECMG 1817/1819 36005KT

4.000'den fazla havaalanı için hava durumu gözlemleri ve tahminleri (METAR ve TAF raporları).

Kullanılabilir istasyonlar harita üzerinde sarı ve kırmızı noktalarla gösterilir.

İstasyonun adını görmek için fareyi noktanın üzerinde gezdirin.

Sonrasında hava gözlem ve tahminlerini görmek için tıklayın.

Haritayı değiştirmek için: yaklaştırmak için siyah artı işaretli yeşil düğmeye ve uzaklaştırmak için de eksi işaretli düğmeye hızla tıklayın; bitişik haritalar için yeşil okları kullanın.


METAR-TAF: